This demonstration page uses our WeatherBlox Daily Observations layout. Learn more.

41.55636, -103.73856

Hourly Observations for July 15, 2019

Temp ( °F °C ) Dew Point ( °F °C ) Humidity (%) Winds ( mph kmh ) Pressure ( in mb ) Visibility ( mi km ) Precip ( " mm )
12:58 am 00:58 Clear 77 25.1 54 12.2 45 45 SSW 13 20 29.96 1015 10 16.0934 0 0
1:58 am 01:58 Clear 72 22.2 57 14.1 60 60 SSW 8 13 29.96 1015 10 16.0934 0 0
2:58 am 02:58 Clear 68 19.9 57 14.1 69 69 S 10 17 29.95 1014 10 16.0934 0 0
3:58 am 03:58 Mostly Cloudy 68 19.8 55 13 65 65 SSW 13 20 29.98 1015 10 16.0934 0 0
4:58 am 04:58 Mostly Cloudy 69 20.5 55 12.9 62 62 SSW 13 20 29.98 1015 10 16.0934 0 0
5:58 am 05:58 Partly Cloudy 65 18.5 56 13.4 72 72 ENE 7 11 30 1016 10 16.0934 0 0
6:58 am 06:58 Clear 63 17.3 55 12.8 75 75 SSE 8 13 29.98 1015 10 16.0934 0 0
7:58 am 07:58 Clear 62 16.6 55 12.8 78 78 SW 12 19 29.95 1014 10 16.0934 0 0
8:58 am 08:58 Clear 61 16.1 55 12.7 80 80 S 10 17 29.92 1013 10 16.0934 0 0
9:58 am 09:58 Partly Cloudy 62 16.8 55 12.9 78 78 SW 13 20 29.9 1013 10 16.0934 0 0
10:58 am 10:58 Mostly Cloudy 61 16.3 54 12.1 76 76 WSW 9 15 29.93 1014 10 16.0934 0 0
11:58 am 11:58 Partly Cloudy 61 15.9 53 11.5 75 75 NW 6 9 29.93 1014 10 16.0934 0 0
12:58 pm 12:58 Partly Cloudy 66 19 56 13.2 69 69 NW 6 9 29.92 1013 10 16.0934 0 0
1:58 pm 13:58 Partly Cloudy 73 22.6 56 13.1 55 55 Calm 29.95 1014 10 16.0934 0 0
2:58 pm 14:58 Mostly Sunny 71 21.9 58 14.5 63 63 N 10 17 30.01 1016 10 16.0934 0 0
3:58 pm 15:58 Sunny 74 23.6 58 14.2 56 56 N 9 15 30 1016 10 16.0934 0 0
4:58 pm 16:58 Sunny 75 24.1 59 14.9 57 57 NNW 12 19 30 1016 10 16.0934 0 0
5:58 pm 17:58 Sunny 78 25.7 58 14.3 49 49 N 16 26 30 1016 10 16.0934 0 0
6:58 pm 18:58 Sunny 80 26.9 56 13.5 44 44 NE 13 20 29.98 1015 10 16.0934 0 0
7:58 pm 19:58 Sunny 82 27.8 54 12.2 38 38 ENE 7 11 29.99 1016 10 16.0934 0 0
8:58 pm 20:58 Sunny 82 27.9 51 10.4 34 34 Calm 29.96 1015 10 16.0934 0 0
9:58 pm 21:58 Sunny 81 27.1 56 13.2 42 42 S 6 9 29.93 1014 10 16.0934 0 0
10:58 pm 22:58 Partly Cloudy 78 25.8 57 14 48 48 SW 10 17 29.94 1014 10 16.0934 0 0
11:58 pm 23:58 Mostly Sunny 75 23.7 53 11.6 47 47 WSW 6 9 29.93 1014 10 16.0934 0 0

Powered by AerisWeather